NEW MELONES RESERVOIR (NML)

Elevation: 1135' · STANISLAUS R basin · Operator: US Bureau of Reclamation

Provisional data, subject to change.
Query executed Friday at 5:59:14   clock

Select a sensor type for a plot of data.
Note: Reservoir Flows are daily averages.

Earlier

Date RES ELE    STORAGE    RES CHG    TOC STO    ABV TOC    OUTFLOW    INFLOW    EVAP    FNF    RIV REL    PPT INC    SPILL    DIS PWR   
 FEET   AF   AF   AF   AF   CFS   CFS   CFS   CFS   CFS   INCHES   CFS   CFS  
04/23/2015 857.51 499537 -1541 2182500 -1682963 969 224 32 424 0 0.00 0 969
04/24/2015 857.25 498323 -1214 2188750 -1690427 763 189 38 414 0 0.00 0 763
04/25/2015 857.02 497248 -1075 2195000 -1697752 974 458 26 778 0 0.97 0 974
04/26/2015 856.76 496040 -1208 2201250 -1705210 815 232 26 505 0 0.98 0 815
04/27/2015 856.54 495019 -1021 2207500 -1712481 831 348 32 731 0 0.00 0 831
04/28/2015 856.22 493533 -1486 2213750 -1720217 1011 324 62 774 0 0.00 0 1011
04/29/2015 855.96 492326 -1207 2220000 -1727674 882 313 40 777 0 0.00 0 882
04/30/2015 855.69 491080 -1246 2226250 -1735170 882 303 49 767 0 0.00 0 882
05/01/2015 855.39 489695 -1385 2232500 -1742805 935 288 51 801 0 0.00 0 935
05/02/2015 855.25 489048 -647 2238750 -1749702 487 215 54 760 0 0.00 0 487
05/03/2015 855.00 487894 -- 2245000 -1757106 719 192 55 708 0 0.00 0 719
05/04/2015 854.71 486563 -1331 2251250 -1764687 791 174 54 681 0 0.00 0 791
05/05/2015 853.96 483120 -- 2257500 -1774380 1970 265 31 694 0 0.00 0 1970
05/06/2015 853.46 480838 -2282 2263750 -1782912 1370 258 38 685 0 0.00 0 1370
05/07/2015 853.16 479469 -1369 2270000 -1790531 879 242 53 679 0 0.04 0 879
05/08/2015 853.03 478876 -593 2276250 -1797374 528 235 6 645 0 0.12 0 528
05/09/2015 852.69 477332 -1544 2282500 -1805168 1073 305 10 793 0 0.01 0 1073
05/10/2015 852.72 477468 136 2288750 -1811282 149 267 49 854 0 0.00 0 149
05/11/2015 852.19 475062 -2406 2295000 -1819938 1454 291 50 874 0 0.00 0 1454
05/12/2015 851.73 472982 -2080 2301250 -1828268 1390 391 50 920 0 0.00 0 1390
05/13/2015 851.41 471539 -1443 2307500 -1835961 1013 317 32 753 0 0.00 0 1013
05/14/2015 851.09 470095 -1444 2313750 -1843655 1110 414 32 774 0 0.00 0 1110
05/15/2015 850.88 469151 -944 2320000 -1850849 841 391 26 830 0 0.49 0 841
05/16/2015 850.68 468253 -898 2326250 -1857997 755 331 29 702 0 0.00 0 755
05/17/2015 850.45 467222 -1031 2332500 -1865278 830 372 62 807 0 0.00 0 830
05/18/2015 850.16 465921 -1301 2338750 -1872829 887 276 45 719 0 0.00 0 887
05/19/2015 849.98 465114 -807 2345000 -1879886 971 622 58 1027 0 0.00 0 971
05/20/2015 849.85 464534 -580 2351250 -1886716 981 729 40 1110 0 0.00 0 981
05/21/2015 849.61 463464 -- 2357500 -1894036 1205 709 43 1147 0 0.00 0 1205
05/22/2015 -- -- -- -- -- -- -- -- -- -- -- -- --

Later | Latest

Warning! This data is preliminary and subject to revision.

Show NML Map | Plot NML Data | 1 Month NML Data | Real-Time NML Data | NML Info